Terminal Aerodrome Forecast
Issued by NWS Blacksburg, VA

Current Version | Previous Version | Text Only | Print | Product List | Glossary On
Versions: 1 2 3 4 5 6 7 8 9 10 11 12 13 14 15 16 17 18 19 20 21 22 23 24 25 26
000
FTUS41 KRNK 271724 AAA
TAFBLF
TAF AMD
KBLF 271724Z 2717/2818 24011G21KT P6SM BKN040
     FM280200 21004KT P6SM OVC025
     FM281300 24004KT P6SM VCSH OVC035
      AMD NOT SKED=

USA.gov is the U.S. government's official web portal to all federal, state and local government web resources and services.